Time;durP1;ratioP1;P1;durP2;ratioP2;P2;SDS_P1;SDS_P2;PMS_P1;PMS_P2;Temp;Humidity;BMP_temperature;BMP_pressure;BME280_temperature;BME280_humidity;BME280_pressure;Samples;Min_cycle;Max_cycle;Signal;HPM_P1;HPM_P2
2023/06/29 00:00:23;;;;;;;4.67;4.27;;;20.60;43.70;;;;;;5030577;28;20205;-58
2023/06/29 00:02:49;;;;;;;6.47;4.07;;;20.60;43.70;;;;;;5032045;28;20177;-54
2023/06/29 00:05:15;;;;;;;5.70;4.23;;;20.60;43.70;;;;;;5032105;28;20541;-57
2023/06/29 00:07:42;;;;;;;5.40;4.90;;;20.50;43.90;;;;;;5032074;28;20436;-56
2023/06/29 00:10:09;;;;;;;9.30;4.63;;;20.50;43.90;;;;;;5031527;28;20512;-54
2023/06/29 00:12:36;;;;;;;7.03;4.03;;;20.50;43.70;;;;;;5031966;28;20456;-56
2023/06/29 00:15:03;;;;;;;8.82;3.90;;;20.50;43.70;;;;;;5031968;28;20166;-56
2023/06/29 00:17:29;;;;;;;4.90;3.50;;;20.50;43.60;;;;;;5032042;28;20594;-56
2023/06/29 00:19:55;;;;;;;6.07;4.10;;;20.50;43.80;;;;;;5031693;28;20500;-54
2023/06/29 00:22:21;;;;;;;4.35;3.95;;;20.50;43.80;;;;;;5031854;28;20704;-56
2023/06/29 00:24:55;;;;;;;4.90;4.00;;;20.50;43.80;;;;;;5035181;28;20190;-56
2023/06/29 00:27:22;;;;;;;3.63;3.33;;;20.40;43.60;;;;;;5035892;28;20400;-56
2023/06/29 00:29:48;;;;;;;6.60;4.30;;;20.30;43.70;;;;;;5035436;28;20444;-56
2023/06/29 00:32:14;;;;;;;3.63;3.27;;;20.30;43.70;;;;;;5035838;28;20573;-55
2023/06/29 00:34:40;;;;;;;4.70;3.70;;;20.20;43.60;;;;;;5035796;28;20531;-57
2023/06/29 00:37:06;;;;;;;5.33;4.17;;;20.20;43.80;;;;;;5035732;28;20173;-54
2023/06/29 00:39:32;;;;;;;4.43;3.93;;;20.30;43.90;;;;;;5034004;28;20432;-56
2023/06/29 00:41:58;;;;;;;3.80;3.40;;;20.30;43.90;;;;;;5035604;28;20412;-58
2023/06/29 00:44:24;;;;;;;4.90;3.50;;;20.30;43.70;;;;;;5035846;28;20424;-55
2023/06/29 00:46:51;;;;;;;4.60;3.90;;;20.20;43.70;;;;;;5035508;28;20178;-55
2023/06/29 00:49:21;;;;;;;7.70;4.43;;;20.30;43.90;;;;;;5035185;28;20411;-57
2023/06/29 00:51:49;;;;;;;5.37;4.40;;;20.20;43.90;;;;;;5035300;28;20212;-55
2023/06/29 00:54:16;;;;;;;5.30;4.00;;;20.30;44.00;;;;;;5035592;28;20904;-57
2023/06/29 00:56:43;;;;;;;4.15;3.75;;;20.20;43.90;;;;;;5035382;28;20882;-53
2023/06/29 00:59:08;;;;;;;4.60;4.10;;;20.20;43.80;;;;;;5035267;28;20717;-55
2023/06/29 01:01:34;;;;;;;6.47;3.80;;;20.20;43.90;;;;;;5035076;28;20421;-58
2023/06/29 01:04:00;;;;;;;6.03;4.25;;;20.20;44.10;;;;;;5035326;28;20165;-57
2023/06/29 01:06:31;;;;;;;6.47;3.63;;;20.20;44.30;;;;;;5035128;28;20641;-57
2023/06/29 01:09:04;;;;;;;7.05;3.55;;;20.20;44.20;;;;;;5035046;28;20202;-57
2023/06/29 01:11:35;;;;;;;4.60;3.90;;;20.20;44.20;;;;;;5035014;28;20736;-54
2023/06/29 01:14:04;;;;;;;6.15;4.50;;;20.10;43.90;;;;;;5035108;28;20531;-55
2023/06/29 01:16:33;;;;;;;4.30;3.40;;;20.10;43.90;;;;;;5034984;28;20200;-57
2023/06/29 01:19:00;;;;;;;3.85;3.45;;;20.10;44.00;;;;;;5034736;28;20669;-58
2023/06/29 01:21:29;;;;;;;5.78;4.40;;;20.10;44.10;;;;;;5034692;28;20724;-55
2023/06/29 01:23:57;;;;;;;6.07;3.90;;;20.10;44.20;;;;;;5034885;28;20205;-57
2023/06/29 01:26:23;;;;;;;4.80;3.45;;;20.10;43.70;;;;;;5034878;28;20174;-55
2023/06/29 01:28:50;;;;;;;5.07;3.90;;;20.00;43.70;;;;;;5034729;28;20499;-53
2023/06/29 01:31:16;;;;;;;6.88;4.22;;;20.00;44.00;;;;;;5034340;28;20208;-56
2023/06/29 01:33:43;;;;;;;5.70;3.53;;;20.00;44.10;;;;;;5034200;28;20344;-53
2023/06/29 01:36:26;;;;;;;5.45;3.42;;;20.00;44.10;;;;;;5034626;28;20702;-55
2023/06/29 01:39:01;;;;;;;4.70;3.72;;;20.00;44.20;;;;;;5034527;28;20232;-57
2023/06/29 01:41:32;;;;;;;5.25;4.18;;;20.00;44.30;;;;;;5034507;28;20284;-55
2023/06/29 01:44:03;;;;;;;4.38;3.63;;;20.00;44.30;;;;;;5034370;28;20589;-55
2023/06/29 01:46:29;;;;;;;6.40;4.45;;;20.00;44.30;;;;;;5033243;28;20178;-59
2023/06/29 01:48:54;;;;;;;4.15;3.70;;;19.90;44.30;;;;;;5034234;28;20259;-56
2023/06/29 01:51:21;;;;;;;5.60;3.50;;;19.90;44.20;;;;;;5034091;28;20674;-55
2023/06/29 01:53:49;;;;;;;4.03;3.40;;;19.90;44.20;;;;;;5033019;28;20721;-57
2023/06/29 01:56:15;;;;;;;6.57;4.00;;;19.90;44.30;;;;;;5034254;28;20267;-55
2023/06/29 01:58:41;;;;;;;4.77;3.10;;;19.80;44.30;;;;;;5034156;28;20201;-56
2023/06/29 02:01:07;;;;;;;4.87;3.53;;;19.80;44.30;;;;;;5033971;28;20221;-53
2023/06/29 02:03:32;;;;;;;4.20;3.20;;;19.70;44.30;;;;;;5034180;28;20170;-57
2023/06/29 02:05:58;;;;;;;6.63;3.67;;;19.60;44.40;;;;;;5034010;28;20170;-56
2023/06/29 02:08:24;;;;;;;4.53;4.00;;;19.60;44.60;;;;;;5034103;28;20166;-55
2023/06/29 02:10:50;;;;;;;5.70;4.40;;;19.60;44.50;;;;;;5033678;28;20190;-54
2023/06/29 02:13:15;;;;;;;5.10;3.60;;;19.60;44.40;;;;;;5033787;28;20228;-57
2023/06/29 02:15:41;;;;;;;5.50;3.97;;;19.60;44.40;;;;;;5033870;28;20638;-53
2023/06/29 02:18:07;;;;;;;10.43;4.57;;;19.60;44.30;;;;;;5033870;28;20189;-56
2023/06/29 02:20:33;;;;;;;5.20;4.03;;;19.50;44.40;;;;;;5033507;28;20186;-56
2023/06/29 02:22:58;;;;;;;3.70;3.13;;;19.50;44.50;;;;;;5033708;28;20174;-55
2023/06/29 02:25:24;;;;;;;4.43;3.93;;;19.50;44.60;;;;;;5033678;28;20708;-57
2023/06/29 02:27:50;;;;;;;4.13;3.43;;;19.50;44.60;;;;;;5033607;28;20181;-54
2023/06/29 02:30:15;;;;;;;4.80;3.63;;;19.40;44.40;;;;;;5033436;28;20206;-56
2023/06/29 02:32:41;;;;;;;4.57;3.60;;;19.40;44.50;;;;;;5033548;28;20230;-59
2023/06/29 02:35:07;;;;;;;4.00;3.50;;;19.40;44.40;;;;;;5033705;28;20630;-56
2023/06/29 02:37:33;;;;;;;4.32;3.72;;;19.40;44.40;;;;;;5033472;28;20428;-56
2023/06/29 02:39:59;;;;;;;7.50;4.37;;;19.40;44.30;;;;;;5033128;28;20700;-58
2023/06/29 02:42:24;;;;;;;7.80;3.60;;;19.40;44.20;;;;;;5033395;28;20170;-55
2023/06/29 02:44:50;;;;;;;5.50;4.07;;;19.40;44.30;;;;;;5033346;28;20644;-56
2023/06/29 02:47:16;;;;;;;5.00;3.37;;;19.40;44.50;;;;;;5032441;28;20697;-58
2023/06/29 02:49:42;;;;;;;6.87;3.70;;;19.40;44.50;;;;;;5033020;28;20282;-54
2023/06/29 02:52:07;;;;;;;3.87;3.27;;;19.40;44.50;;;;;;5033135;28;20633;-56
2023/06/29 02:54:33;;;;;;;6.37;3.80;;;19.40;44.50;;;;;;5033082;28;20202;-58
2023/06/29 02:56:59;;;;;;;6.80;3.40;;;19.30;44.50;;;;;;5033001;28;20682;-57
2023/06/29 02:59:24;;;;;;;5.00;3.50;;;19.30;44.50;;;;;;5032840;28;20166;-56
2023/06/29 03:01:50;;;;;;;5.33;4.83;;;19.30;44.60;;;;;;5033246;28;20170;-57
2023/06/29 03:04:16;;;;;;;4.87;4.10;;;19.30;44.60;;;;;;5033122;28;20184;-57
2023/06/29 03:06:42;;;;;;;4.43;4.03;;;19.30;44.70;;;;;;5032944;28;20634;-56
2023/06/29 03:09:07;;;;;;;4.33;3.80;;;19.30;44.60;;;;;;5032799;28;20660;-57
2023/06/29 03:11:33;;;;;;;5.40;4.00;;;19.30;44.60;;;;;;5032680;28;20208;-57
2023/06/29 03:13:59;;;;;;;5.23;4.00;;;19.30;44.80;;;;;;5032806;28;20201;-56
2023/06/29 03:16:25;;;;;;;9.10;5.37;;;19.20;44.60;;;;;;5032908;28;20173;-56
2023/06/29 03:18:50;;;;;;;8.35;4.10;;;19.30;44.50;;;;;;5032716;28;20695;-59
2023/06/29 03:21:18;;;;;;;6.93;4.27;;;19.30;44.70;;;;;;5032453;28;20194;-59
2023/06/29 03:23:44;;;;;;;8.60;4.70;;;19.20;44.60;;;;;;5032613;28;20638;-55
2023/06/29 03:26:09;;;;;;;4.40;4.00;;;19.20;44.60;;;;;;5032514;28;20174;-57
2023/06/29 03:28:35;;;;;;;6.87;4.47;;;19.20;44.50;;;;;;5032495;28;20412;-56
2023/06/29 03:31:01;;;;;;;3.90;3.30;;;19.20;44.50;;;;;;5032145;28;20281;-55
2023/06/29 03:33:26;;;;;;;5.63;4.07;;;19.20;44.80;;;;;;5032510;28;20322;-57
2023/06/29 03:35:52;;;;;;;7.60;4.40;;;19.20;44.90;;;;;;5032333;28;20162;-58
2023/06/29 03:38:18;;;;;;;4.40;4.00;;;19.20;45.40;;;;;;5032411;28;20165;-54
2023/06/29 03:40:44;;;;;;;7.63;5.07;;;19.20;44.70;;;;;;5031922;28;20193;-57
2023/06/29 03:43:09;;;;;;;6.83;5.07;;;19.30;44.60;;;;;;5032375;28;20176;-59
2023/06/29 03:45:35;;;;;;;3.70;3.30;;;19.20;45.40;;;;;;5032136;28;20569;-57
2023/06/29 03:48:01;;;;;;;4.27;3.87;;;19.30;44.90;;;;;;5030927;28;20220;-56
2023/06/29 03:50:26;;;;;;;12.03;3.80;;;19.30;44.50;;;;;;5031844;28;20186;-60
2023/06/29 03:52:52;;;;;;;4.70;3.83;;;19.30;44.50;;;;;;5032103;28;20455;-56
2023/06/29 03:55:18;;;;;;;5.97;3.83;;;19.30;44.40;;;;;;5032013;28;20173;-55
2023/06/29 03:57:44;;;;;;;5.40;4.70;;;19.30;44.50;;;;;;5032052;28;20653;-60
2023/06/29 04:00:10;;;;;;;5.10;3.80;;;19.40;44.50;;;;;;5032059;28;20193;-58
2023/06/29 04:02:36;;;;;;;4.47;3.90;;;19.40;44.60;;;;;;5032110;28;20400;-56
2023/06/29 04:05:02;;;;;;;5.40;4.87;;;19.40;44.50;;;;;;5032363;28;20236;-60
2023/06/29 04:07:27;;;;;;;6.83;4.40;;;19.40;44.50;;;;;;5032076;28;20252;-55
2023/06/29 04:09:53;;;;;;;6.90;3.83;;;19.50;44.60;;;;;;5031563;28;20416;-59
2023/06/29 04:12:19;;;;;;;6.50;3.83;;;19.40;44.70;;;;;;5031904;28;20235;-57
2023/06/29 04:14:45;;;;;;;6.20;4.33;;;19.60;44.90;;;;;;5031800;28;20730;-55
2023/06/29 04:17:11;;;;;;;4.53;3.13;;;19.60;44.50;;;;;;5032037;28;20174;-57
2023/06/29 04:19:37;;;;;;;5.80;3.80;;;19.60;44.10;;;;;;5031566;28;20190;-58
2023/06/29 04:22:03;;;;;;;4.63;3.50;;;19.70;44.10;;;;;;5031950;28;20637;-55
2023/06/29 04:24:29;;;;;;;8.70;4.73;;;19.70;43.80;;;;;;5031793;28;20209;-54
2023/06/29 04:26:54;;;;;;;4.47;3.97;;;19.80;44.00;;;;;;5031858;28;20507;-58
2023/06/29 04:29:21;;;;;;;8.03;4.37;;;19.80;44.20;;;;;;5031694;28;20231;-55
2023/06/29 04:31:47;;;;;;;6.22;4.18;;;19.90;44.30;;;;;;5031948;28;20205;-56
2023/06/29 04:34:17;;;;;;;5.60;4.43;;;19.90;43.70;;;;;;5031690;28;20682;-59
2023/06/29 04:36:46;;;;;;;6.13;3.65;;;20.00;43.20;;;;;;5031685;28;20224;-55
2023/06/29 04:39:13;;;;;;;4.78;3.90;;;20.00;43.60;;;;;;5031484;28;20170;-56
2023/06/29 04:41:40;;;;;;;6.38;4.50;;;20.00;43.90;;;;;;5031618;28;20215;-57
2023/06/29 04:44:10;;;;;;;4.75;4.10;;;20.10;43.80;;;;;;5031631;28;20174;-56
2023/06/29 04:46:40;;;;;;;5.75;3.70;;;20.20;43.80;;;;;;5031628;28;20193;-56
2023/06/29 04:49:07;;;;;;;4.43;3.72;;;20.30;43.50;;;;;;5031538;28;20193;-59
2023/06/29 04:51:39;;;;;;;7.68;3.80;;;20.30;43.10;;;;;;5031361;28;20194;-56
2023/06/29 04:54:07;;;;;;;8.40;4.75;;;20.40;43.40;;;;;;5031440;28;20205;-55
2023/06/29 04:56:33;;;;;;;9.93;3.70;;;20.50;42.30;;;;;;5030271;28;20171;-58
2023/06/29 04:58:59;;;;;;;6.17;4.47;;;20.50;42.20;;;;;;5031655;28;20488;-57
2023/06/29 05:01:25;;;;;;;3.93;3.13;;;20.50;42.10;;;;;;5031322;28;20209;-57
2023/06/29 05:03:50;;;;;;;4.10;3.70;;;20.50;41.90;;;;;;5031333;28;20170;-56
2023/06/29 05:06:16;;;;;;;4.80;3.40;;;20.50;41.50;;;;;;5031473;28;20174;-55
2023/06/29 05:08:42;;;;;;;3.90;2.90;;;20.50;42.10;;;;;;5031889;28;20228;-54
2023/06/29 05:11:08;;;;;;;5.50;3.70;;;20.70;42.30;;;;;;5033443;28;20681;-58
2023/06/29 05:13:36;;;;;;;5.53;3.80;;;20.70;42.10;;;;;;5035022;28;20452;-57
2023/06/29 05:16:04;;;;;;;5.93;3.60;;;20.80;42.00;;;;;;5035112;28;20174;-58
2023/06/29 05:18:31;;;;;;;4.07;2.93;;;21.00;41.80;;;;;;5034792;28;20401;-55
2023/06/29 05:20:59;;;;;;;7.17;4.20;;;21.00;41.50;;;;;;5034630;28;20428;-55
2023/06/29 05:23:25;;;;;;;6.83;3.43;;;21.10;41.40;;;;;;5034915;28;20451;-57
2023/06/29 05:25:51;;;;;;;6.20;3.80;;;21.20;40.90;;;;;;5034879;28;20792;-54
2023/06/29 05:28:16;;;;;;;6.13;4.10;;;21.20;40.90;;;;;;5034815;28;20216;-56
2023/06/29 05:30:42;;;;;;;4.40;3.57;;;21.30;40.60;;;;;;5034435;28;20638;-57
2023/06/29 05:33:08;;;;;;;7.07;3.87;;;21.40;40.60;;;;;;5034566;28;20888;-55
2023/06/29 05:35:35;;;;;;;6.20;3.63;;;21.40;40.80;;;;;;5034582;28;20261;-57
2023/06/29 05:38:01;;;;;;;4.17;3.53;;;21.50;40.40;;;;;;5034627;28;20198;-55
2023/06/29 05:40:27;;;;;;;8.70;4.73;;;21.60;40.10;;;;;;5034229;28;20425;-54
2023/06/29 05:42:53;;;;;;;5.10;3.43;;;21.60;39.60;;;;;;5034478;28;20405;-57
2023/06/29 05:45:19;;;;;;;3.93;2.90;;;21.70;40.10;;;;;;5034458;28;20412;-58
2023/06/29 05:47:44;;;;;;;5.40;3.07;;;21.80;39.50;;;;;;5034344;28;20626;-55
2023/06/29 05:50:10;;;;;;;6.30;3.00;;;21.90;39.70;;;;;;5034049;28;20189;-57
2023/06/29 05:52:39;;;;;;;7.47;3.23;;;21.90;39.80;;;;;;5033041;28;20233;-57
2023/06/29 05:55:05;;;;;;;5.10;3.20;;;22.00;39.40;;;;;;5034616;28;20162;-54
2023/06/29 05:57:31;;;;;;;9.57;3.20;;;22.10;39.70;;;;;;5034294;28;20401;-56
2023/06/29 05:59:56;;;;;;;5.07;3.37;;;22.20;39.70;;;;;;5033931;28;20428;-55
2023/06/29 06:02:22;;;;;;;8.43;4.23;;;22.20;39.10;;;;;;5034172;28;20170;-56
2023/06/29 06:04:49;;;;;;;5.43;3.30;;;22.30;39.40;;;;;;5034181;28;20177;-57
2023/06/29 06:07:15;;;;;;;4.90;3.30;;;22.40;39.10;;;;;;5034137;28;20248;-55
2023/06/29 06:09:41;;;;;;;6.97;3.40;;;22.50;39.00;;;;;;5033839;28;20989;-54
2023/06/29 06:12:07;;;;;;;5.73;3.30;;;22.60;38.90;;;;;;5033990;28;20408;-57
2023/06/29 06:14:35;;;;;;;6.30;3.40;;;22.70;39.10;;;;;;5033906;28;21039;-55
2023/06/29 06:17:01;;;;;;;6.47;3.70;;;22.80;38.80;;;;;;5033854;28;20517;-57
2023/06/29 06:19:27;;;;;;;5.63;4.10;;;22.90;38.00;;;;;;5033822;28;20904;-54
2023/06/29 06:21:53;;;;;;;5.00;3.10;;;22.90;37.60;;;;;;5032786;28;20181;-56
2023/06/29 06:24:18;;;;;;;5.77;3.07;;;23.00;38.10;;;;;;5033725;28;20204;-56
2023/06/29 06:26:44;;;;;;;4.50;3.30;;;23.10;38.80;;;;;;5033693;28;20166;-54
2023/06/29 06:29:10;;;;;;;5.20;3.27;;;23.20;38.40;;;;;;5033315;28;20185;-58
2023/06/29 06:31:35;;;;;;;4.90;3.60;;;23.40;38.00;;;;;;5033211;28;20213;-55
2023/06/29 06:34:02;;;;;;;6.70;3.40;;;23.40;37.60;;;;;;5033699;28;20212;-54
2023/06/29 06:36:32;;;;;;;6.13;3.17;;;23.50;37.90;;;;;;5033463;28;20213;-57
2023/06/29 06:38:58;;;;;;;4.17;3.03;;;23.60;38.20;;;;;;5033496;28;20451;-54
2023/06/29 06:41:23;;;;;;;4.47;3.13;;;23.70;37.60;;;;;;5033212;28;20441;-54
2023/06/29 06:43:49;;;;;;;6.00;3.00;;;23.80;37.80;;;;;;5033355;28;20661;-57
2023/06/29 06:46:15;;;;;;;5.80;2.80;;;23.90;37.20;;;;;;5033549;28;20412;-54
2023/06/29 06:48:41;;;;;;;6.03;2.90;;;24.00;37.60;;;;;;5032092;28;20503;-55
2023/06/29 06:51:06;;;;;;;5.10;3.43;;;24.00;36.90;;;;;;5033246;28;20216;-57
2023/06/29 06:53:32;;;;;;;7.57;3.20;;;24.10;37.60;;;;;;5033163;28;20194;-55
2023/06/29 06:55:58;;;;;;;6.20;3.30;;;24.20;37.30;;;;;;5031860;28;20170;-55
2023/06/29 06:58:23;;;;;;;7.00;2.30;;;24.20;37.10;;;;;;5033072;28;20174;-55
2023/06/29 07:00:49;;;;;;;9.50;2.60;;;24.30;36.70;;;;;;5032738;28;20221;-57
2023/06/29 07:03:15;;;;;;;9.80;3.27;;;24.40;37.00;;;;;;5031851;28;20553;-55
2023/06/29 07:05:41;;;;;;;3.70;2.43;;;24.60;36.50;;;;;;5033176;28;20235;-55
2023/06/29 07:08:06;;;;;;;4.03;2.53;;;24.70;36.80;;;;;;5033097;28;20257;-57
2023/06/29 07:10:32;;;;;;;5.20;2.93;;;24.70;35.40;;;;;;5032594;28;20709;-55
2023/06/29 07:12:58;;;;;;;4.60;2.63;;;24.80;34.10;;;;;;5032723;28;20691;-55
2023/06/29 07:15:24;;;;;;;4.20;2.57;;;24.70;34.80;;;;;;5032813;28;20177;-56
2023/06/29 07:17:49;;;;;;;7.57;3.30;;;24.80;35.90;;;;;;5032989;28;20174;-57
2023/06/29 07:20:15;;;;;;;5.57;2.97;;;25.00;36.10;;;;;;5032419;28;20198;-55
2023/06/29 07:22:41;;;;;;;3.87;2.87;;;25.10;36.10;;;;;;5032839;28;20241;-57
2023/06/29 07:25:07;;;;;;;5.20;2.80;;;25.30;35.50;;;;;;5032677;28;20162;-54
2023/06/29 07:27:33;;;;;;;4.93;2.63;;;25.40;35.70;;;;;;5032595;28;20335;-54
2023/06/29 07:29:59;;;;;;;4.83;2.43;;;25.60;35.00;;;;;;5032050;28;20448;-57
2023/06/29 07:32:24;;;;;;;5.90;2.70;;;25.70;33.90;;;;;;5032159;28;20436;-56
2023/06/29 07:34:50;;;;;;;4.53;2.93;;;25.60;32.80;;;;;;5032454;28;20208;-54
2023/06/29 07:37:16;;;;;;;6.57;2.50;;;25.60;33.80;;;;;;5032379;28;20173;-57
2023/06/29 07:39:42;;;;;;;5.07;3.10;;;25.70;34.40;;;;;;5032127;28;20205;-55
2023/06/29 07:42:07;;;;;;;3.10;2.10;;;25.80;34.20;;;;;;5032320;28;20185;-55
2023/06/29 07:44:33;;;;;;;5.37;2.47;;;25.90;33.70;;;;;;5032218;28;20177;-57
2023/06/29 07:46:59;;;;;;;3.70;2.63;;;26.00;34.40;;;;;;5032445;28;20195;-56
2023/06/29 07:49:25;;;;;;;6.60;2.70;;;26.20;35.10;;;;;;5032168;28;20202;-54
2023/06/29 07:51:51;;;;;;;5.47;2.67;;;26.30;34.60;;;;;;5032377;28;20432;-57
2023/06/29 07:54:18;;;;;;;4.60;2.67;;;26.50;34.10;;;;;;5032279;28;20201;-54
2023/06/29 07:56:44;;;;;;;3.17;2.40;;;26.60;34.30;;;;;;5032151;28;20166;-55
2023/06/29 07:59:09;;;;;;;3.43;2.33;;;26.70;33.60;;;;;;5032007;28;20443;-57
2023/06/29 08:01:38;;;;;;;5.83;2.47;;;26.80;31.80;;;;;;5032119;28;20189;-57
2023/06/29 08:04:03;;;;;;;5.23;2.30;;;26.80;31.60;;;;;;5032254;28;20197;-54
2023/06/29 08:06:31;;;;;;;6.80;2.83;;;26.90;31.90;;;;;;5032165;28;20440;-55
2023/06/29 08:08:57;;;;;;;3.27;2.10;;;27.00;31.80;;;;;;5032090;28;20186;-57
2023/06/29 08:11:23;;;;;;;7.03;3.07;;;27.10;32.20;;;;;;5031791;28;20439;-57
2023/06/29 08:13:48;;;;;;;3.97;2.20;;;27.20;30.40;;;;;;5032061;28;20214;-58
2023/06/29 08:16:15;;;;;;;3.73;2.57;;;27.30;31.10;;;;;;5032355;28;20257;-55
2023/06/29 08:18:41;;;;;;;3.57;2.57;;;27.40;30.90;;;;;;5032050;28;20167;-56
2023/06/29 08:21:07;;;;;;;4.37;2.30;;;27.50;31.90;;;;;;5030430;28;20428;-58
2023/06/29 08:23:33;;;;;;;3.60;2.40;;;27.50;29.40;;;;;;5032007;28;20693;-55
2023/06/29 08:25:58;;;;;;;6.27;2.10;;;27.60;29.90;;;;;;5031876;28;20201;-58
2023/06/29 08:28:24;;;;;;;3.43;2.00;;;27.60;28.50;;;;;;5031984;28;20491;-58
2023/06/29 08:30:51;;;;;;;6.70;2.57;;;27.60;29.10;;;;;;5031587;28;20206;-56
2023/06/29 08:33:17;;;;;;;3.20;2.43;;;27.60;29.50;;;;;;5031732;28;20803;-57
2023/06/29 08:35:43;;;;;;;3.23;1.90;;;27.70;29.10;;;;;;5031905;28;20432;-59
2023/06/29 08:38:09;;;;;;;3.30;2.27;;;27.70;27.20;;;;;;5031890;28;20209;-55
2023/06/29 08:40:35;;;;;;;3.50;2.27;;;27.70;28.00;;;;;;5031546;28;20513;-56
2023/06/29 08:43:02;;;;;;;3.00;2.20;;;27.70;27.20;;;;;;5031855;28;20173;-58
2023/06/29 08:45:27;;;;;;;3.30;1.80;;;27.70;28.50;;;;;;5034528;28;20400;-56
2023/06/29 08:47:54;;;;;;;8.57;2.33;;;27.80;29.20;;;;;;5035639;28;20400;-56
2023/06/29 08:50:25;;;;;;;3.20;1.73;;;27.90;29.60;;;;;;5035301;28;20190;-58
2023/06/29 08:52:52;;;;;;;3.10;1.80;;;28.00;29.70;;;;;;5035510;28;20463;-56
2023/06/29 08:55:18;;;;;;;3.20;1.77;;;28.10;28.20;;;;;;5035605;28;20452;-55
2023/06/29 08:57:45;;;;;;;3.10;2.00;;;28.10;27.80;;;;;;5035473;28;20408;-58
2023/06/29 09:00:13;;;;;;;2.60;1.70;;;28.10;28.30;;;;;;5035139;28;20432;-55
2023/06/29 09:02:39;;;;;;;4.47;2.30;;;28.20;29.00;;;;;;5035382;28;20423;-58
2023/06/29 09:05:05;;;;;;;5.33;2.13;;;28.30;29.60;;;;;;5035547;28;20962;-58
2023/06/29 09:07:31;;;;;;;3.87;2.33;;;28.40;29.70;;;;;;5035702;28;20412;-55
2023/06/29 09:09:57;;;;;;;6.00;2.30;;;28.50;30.10;;;;;;5034979;28;20486;-55
2023/06/29 09:12:23;;;;;;;3.17;2.37;;;28.70;30.10;;;;;;5035238;28;20397;-58
2023/06/29 09:14:49;;;;;;;3.57;2.07;;;28.70;28.50;;;;;;5035217;28;20452;-54
2023/06/29 09:17:17;;;;;;;3.67;2.20;;;28.70;29.20;;;;;;5035158;28;20162;-55
2023/06/29 09:19:51;;;;;;;4.00;2.40;;;28.80;30.10;;;;;;5034848;28;20490;-56
2023/06/29 09:22:19;;;;;;;5.27;2.40;;;28.90;29.90;;;;;;5034227;28;20401;-54
2023/06/29 09:24:45;;;;;;;3.40;2.30;;;28.90;29.80;;;;;;5035157;28;20547;-56
2023/06/29 09:27:11;;;;;;;3.00;2.13;;;28.90;27.90;;;;;;5035002;28;20761;-55
2023/06/29 09:29:39;;;;;;;7.50;3.00;;;28.90;29.00;;;;;;5034734;28;20424;-54
2023/06/29 09:32:13;;;;;;;3.60;1.67;;;29.00;29.60;;;;;;5034063;28;20549;-57
2023/06/29 09:34:45;;;;;;;6.40;2.23;;;29.20;28.80;;;;;;5034854;28;20940;-57
2023/06/29 09:37:16;;;;;;;3.07;1.87;;;29.20;28.10;;;;;;5034941;28;20407;-54
2023/06/29 09:39:58;;;;;;;3.13;2.23;;;29.20;27.80;;;;;;5034731;28;20439;-56
2023/06/29 09:42:30;;;;;;;4.53;2.33;;;29.20;29.50;;;;;;5034706;28;20409;-55
2023/06/29 09:45:02;;;;;;;4.03;3.63;;;29.20;29.50;;;;;;5034813;28;20404;-58
2023/06/29 09:47:29;;;;;;;6.53;2.90;;;29.30;29.10;;;;;;5034829;28;20423;-57
2023/06/29 09:49:54;;;;;;;7.13;3.00;;;29.40;29.40;;;;;;5033105;28;20459;-55
2023/06/29 09:52:21;;;;;;;5.00;1.93;;;29.50;27.50;;;;;;5035031;28;20823;-55
2023/06/29 09:54:49;;;;;;;3.70;2.23;;;29.50;27.60;;;;;;5034596;28;20260;-57
2023/06/29 09:57:15;;;;;;;7.30;2.60;;;29.50;28.40;;;;;;5033396;28;20769;-56
2023/06/29 09:59:45;;;;;;;4.63;2.23;;;29.50;27.10;;;;;;5034148;28;20427;-56
2023/06/29 10:02:12;;;;;;;6.53;2.17;;;29.50;29.10;;;;;;5034509;28;20433;-58
2023/06/29 10:04:40;;;;;;;3.90;2.20;;;29.60;28.20;;;;;;5033335;28;20425;-55
2023/06/29 10:07:14;;;;;;;5.83;2.17;;;29.70;27.60;;;;;;5034649;28;20503;-57
2023/06/29 10:09:42;;;;;;;3.13;2.00;;;29.70;26.80;;;;;;5034465;28;20425;-55
2023/06/29 10:12:12;;;;;;;3.90;2.10;;;29.70;27.10;;;;;;5034847;28;20764;-56
2023/06/29 10:14:48;;;;;;;3.90;2.40;;;29.70;28.60;;;;;;5034271;28;20456;-57
2023/06/29 10:17:25;;;;;;;5.00;2.90;;;29.90;28.40;;;;;;5034334;28;20413;-57
2023/06/29 10:19:53;;;;;;;3.30;2.20;;;29.90;28.00;;;;;;5034473;28;20462;-55
2023/06/29 10:22:21;;;;;;;2.93;1.80;;;30.00;28.50;;;;;;5034186;28;20408;-55
2023/06/29 10:24:54;;;;;;;6.07;2.77;;;30.00;29.20;;;;;;5033019;28;20415;-57
2023/06/29 10:27:26;;;;;;;2.60;2.00;;;30.10;27.60;;;;;;5034169;28;20400;-54
2023/06/29 10:29:52;;;;;;;8.03;2.30;;;30.10;28.50;;;;;;5032393;28;20453;-55
2023/06/29 10:32:34;;;;;;;4.50;2.40;;;30.20;26.90;;;;;;5033918;28;20416;-57
2023/06/29 10:35:11;;;;;;;4.60;2.67;;;30.20;26.10;;;;;;5033809;28;20484;-57
2023/06/29 10:37:40;;;;;;;4.63;2.00;;;30.20;25.00;;;;;;5034186;28;20776;-57
2023/06/29 10:40:20;;;;;;;3.43;2.27;;;30.10;27.20;;;;;;5033404;28;20435;-55
2023/06/29 10:42:46;;;;;;;10.07;2.03;;;30.30;27.30;;;;;;5033697;28;20944;-57
2023/06/29 10:45:17;;;;;;;3.60;1.60;;;30.20;25.50;;;;;;5033769;28;21140;-54
2023/06/29 10:47:45;;;;;;;5.53;1.80;;;30.20;26.30;;;;;;5033506;28;20170;-57
2023/06/29 10:50:10;;;;;;;3.13;2.10;;;30.20;25.80;;;;;;5033347;28;20563;-57
2023/06/29 10:52:37;;;;;;;3.10;2.10;;;30.30;26.90;;;;;;5033609;28;20435;-54
2023/06/29 10:55:18;;;;;;;8.53;2.10;;;30.30;25.80;;;;;;5033316;28;20205;-54
2023/06/29 10:57:48;;;;;;;2.83;1.83;;;30.40;26.10;;;;;;5033554;28;20511;-57
2023/06/29 11:00:15;;;;;;;3.10;2.40;;;30.40;25.60;;;;;;5033067;28;20456;-54
2023/06/29 11:02:41;;;;;;;4.80;2.30;;;30.40;26.30;;;;;;5033691;28;20859;-55
2023/06/29 11:05:13;;;;;;;2.50;1.50;;;30.50;26.70;;;;;;5033338;28;20415;-57
2023/06/29 11:07:40;;;;;;;4.30;2.23;;;30.60;26.30;;;;;;5031331;28;20413;-55
2023/06/29 11:10:06;;;;;;;6.03;2.17;;;30.60;27.70;;;;;;5033306;28;20433;-56
2023/06/29 11:12:32;;;;;;;8.47;1.70;;;30.70;26.10;;;;;;5032965;28;20423;-54
2023/06/29 11:14:58;;;;;;;4.17;2.40;;;30.80;26.70;;;;;;5032810;28;20460;-54
2023/06/29 11:17:24;;;;;;;2.90;1.90;;;30.90;24.70;;;;;;5031718;28;20199;-57
2023/06/29 11:19:50;;;;;;;2.97;1.90;;;31.00;26.70;;;;;;5031258;28;20543;-54
2023/06/29 11:22:19;;;;;;;2.87;2.10;;;31.10;26.60;;;;;;5024163;28;20451;-56
2023/06/29 11:24:45;;;;;;;5.33;2.80;;;31.10;24.90;;;;;;5032651;28;20437;-54
2023/06/29 11:27:11;;;;;;;4.50;2.13;;;31.00;24.80;;;;;;5032605;28;20918;-54
2023/06/29 11:29:38;;;;;;;4.07;2.00;;;31.00;24.50;;;;;;5032239;28;20444;-56
2023/06/29 11:32:15;;;;;;;3.57;2.10;;;30.90;24.90;;;;;;5032816;28;20425;-54
2023/06/29 11:34:41;;;;;;;6.73;2.90;;;31.00;25.00;;;;;;5032501;28;20452;-54
2023/06/29 11:37:09;;;;;;;4.00;2.30;;;31.00;24.70;;;;;;5032564;28;20496;-56
2023/06/29 11:39:35;;;;;;;2.67;1.97;;;31.00;25.40;;;;;;5032193;28;20186;-53
2023/06/29 11:42:16;;;;;;;2.80;2.10;;;30.90;24.10;;;;;;5032424;28;20503;-56
2023/06/29 11:44:42;;;;;;;3.83;2.27;;;31.00;24.60;;;;;;5032488;28;20170;-56
2023/06/29 11:47:08;;;;;;;5.23;2.00;;;30.90;24.10;;;;;;5032319;28;20415;-55
2023/06/29 11:49:34;;;;;;;3.30;2.20;;;30.90;23.90;;;;;;5032089;28;20194;-55
2023/06/29 11:52:03;;;;;;;4.53;2.30;;;30.90;24.60;;;;;;5032366;28;20800;-56
2023/06/29 11:54:30;;;;;;;4.13;2.13;;;31.00;24.90;;;;;;5032070;28;20463;-54
2023/06/29 11:56:56;;;;;;;6.53;3.23;;;30.90;25.00;;;;;;5032506;28;20401;-55
2023/06/29 11:59:22;;;;;;;3.77;1.60;;;31.00;26.30;;;;;;5031916;28;20923;-57
2023/06/29 12:01:48;;;;;;;2.87;2.17;;;31.20;25.40;;;;;;5032223;28;20484;-55
2023/06/29 12:04:14;;;;;;;3.57;2.33;;;31.30;26.10;;;;;;5032059;28;20692;-55
2023/06/29 12:06:54;;;;;;;3.30;2.03;;;31.30;24.80;;;;;;5032141;28;20409;-57
2023/06/29 12:09:20;;;;;;;4.03;1.90;;;31.50;25.60;;;;;;5031801;28;20385;-54
2023/06/29 12:11:56;;;;;;;6.03;2.50;;;31.50;25.40;;;;;;5032324;28;20803;-56
2023/06/29 12:14:23;;;;;;;3.00;2.10;;;31.70;25.20;;;;;;5032075;28;20620;-56
2023/06/29 12:16:51;;;;;;;3.17;1.90;;;31.60;23.80;;;;;;5030786;28;20908;-54
2023/06/29 12:19:17;;;;;;;6.03;1.70;;;31.50;23.00;;;;;;5034228;28;20404;-55
2023/06/29 12:21:44;;;;;;;5.23;2.50;;;31.40;24.40;;;;;;5036178;28;20415;-56
2023/06/29 12:24:14;;;;;;;4.00;2.40;;;31.40;24.10;;;;;;5034803;28;20634;-55
2023/06/29 12:26:40;;;;;;;4.37;2.10;;;31.40;23.60;;;;;;5034905;28;20467;-55
2023/06/29 12:29:07;;;;;;;3.93;2.33;;;31.40;23.60;;;;;;5034655;28;20424;-54
2023/06/29 12:31:33;;;;;;;3.33;2.23;;;31.40;23.80;;;;;;5035681;28;20569;-56
2023/06/29 12:34:01;;;;;;;5.33;1.80;;;31.40;24.70;;;;;;5035659;28;20511;-56
2023/06/29 12:36:27;;;;;;;3.37;2.40;;;31.40;25.30;;;;;;5035913;28;20404;-54
2023/06/29 12:38:53;;;;;;;4.53;2.17;;;31.50;27.50;;;;;;5035769;28;20443;-56
2023/06/29 12:41:19;;;;;;;3.43;1.90;;;31.70;26.10;;;;;;5035633;28;20205;-54
2023/06/29 12:43:44;;;;;;;3.00;2.10;;;31.80;24.40;;;;;;5035831;28;20181;-53